Time;durP1;ratioP1;P1;durP2;ratioP2;P2;SDS_P1;SDS_P2;PMS_P1;PMS_P2;Temp;Humidity;BMP_temperature;BMP_pressure;BME280_temperature;BME280_humidity;BME280_pressure;Samples;Min_cycle;Max_cycle;Signal;HPM_P1;HPM_P2
2022/01/30 00:01:56;;;;;;;4.30;3.40;;;6.70;92.50;;;5.24;89.47;98469.94;5111284;28;20460;-77
2022/01/30 00:04:23;;;;;;;2.80;2.60;;;6.60;93.00;;;5.13;90.12;98472.94;5080340;28;20460;-77
2022/01/30 00:06:52;;;;;;;3.40;3.10;;;6.60;93.40;;;5.14;91.11;98491.50;5074060;28;20534;-78
2022/01/30 00:09:21;;;;;;;3.83;3.40;;;6.50;94.40;;;5.04;92.89;98477.47;5088889;28;20931;-77
2022/01/30 00:11:54;;;;;;;3.77;3.40;;;6.50;96.20;;;4.95;93.42;98485.50;5073388;28;20470;-77
2022/01/30 00:14:23;;;;;;;3.90;3.47;;;6.40;97.80;;;4.89;94.05;98485.34;5089012;28;20537;-77
2022/01/30 00:16:56;;;;;;;3.00;2.80;;;6.30;99.40;;;4.88;94.12;98486.34;5071837;28;20437;-76
2022/01/30 00:19:29;;;;;;;3.00;2.70;;;6.30;98.80;;;4.84;94.89;98488.50;5073872;28;20438;-76
2022/01/30 00:22:13;;;;;;;2.70;2.50;;;6.30;99.90;;;4.53;94.61;98455.22;5073393;28;20444;-76
2022/01/30 00:24:50;;;;;;;3.30;2.60;;;6.20;99.90;;;4.76;94.67;98483.16;5075620;28;20447;-77
2022/01/30 00:27:20;;;;;;;3.00;2.80;;;6.20;99.90;;;4.79;95.50;98482.84;5077173;28;20432;-76
2022/01/30 00:29:47;;;;;;;2.57;2.37;;;6.20;99.90;;;4.76;95.13;98493.88;5077016;28;20439;-77
2022/01/30 00:32:14;;;;;;;3.80;2.80;;;6.20;99.90;;;4.77;94.36;98495.56;5076567;28;20525;-77
2022/01/30 00:34:41;;;;;;;2.73;2.53;;;6.20;99.30;;;4.78;95.37;98482.00;5092750;28;20528;-76
2022/01/30 00:37:10;;;;;;;2.70;2.50;;;6.20;99.90;;;4.80;94.70;98488.03;5075048;28;20824;-76
2022/01/30 00:39:37;;;;;;;2.60;2.40;;;6.20;99.70;;;4.80;94.46;98482.69;5091771;28;20520;-76
2022/01/30 00:42:05;;;;;;;3.10;2.53;;;6.20;99.10;;;4.80;94.12;98474.66;5077164;28;20534;-77
2022/01/30 00:44:32;;;;;;;2.60;2.40;;;6.20;97.40;;;4.79;93.42;98478.31;5076384;28;20445;-76
2022/01/30 00:47:01;;;;;;;2.80;1.97;;;6.20;96.30;;;4.77;92.41;98476.81;5092082;28;20456;-77
2022/01/30 00:49:29;;;;;;;2.80;2.60;;;6.20;95.90;;;4.74;91.98;98475.28;5092955;28;20435;-76
2022/01/30 00:51:55;;;;;;;2.20;1.97;;;6.20;95.50;;;4.87;91.87;98471.28;5092793;28;20442;-77
2022/01/30 00:54:24;;;;;;;2.13;1.93;;;6.30;95.30;;;4.86;91.56;98462.44;5095397;28;20992;-77
2022/01/30 00:56:51;;;;;;;2.00;1.90;;;6.30;94.10;;;4.86;90.88;98477.66;5098729;28;20437;-77
2022/01/30 00:59:18;;;;;;;2.17;2.07;;;6.30;94.20;;;4.87;90.53;98482.00;5080039;28;20492;-77
2022/01/30 01:01:45;;;;;;;3.60;2.03;;;6.30;93.40;;;4.86;90.11;98493.72;5082346;28;20458;-77
2022/01/30 01:04:11;;;;;;;1.60;1.50;;;6.30;93.00;;;4.84;90.33;98493.88;5092408;28;20466;-77
2022/01/30 01:06:40;;;;;;;1.20;1.10;;;6.30;92.90;;;4.82;89.56;98485.16;5091024;28;20443;-76
2022/01/30 01:09:10;;;;;;;1.43;1.33;;;6.30;92.40;;;4.89;90.52;98496.06;5093935;28;20444;-77
2022/01/30 01:25:18;;;;;;;5.63;1.40;;;6.30;91.90;;;4.82;89.16;98494.06;5074975;28;20438;-78
2022/01/30 01:27:47;;;;;;;1.50;1.30;;;6.30;91.60;;;4.82;88.32;98493.19;5075635;28;20456;-76
2022/01/30 01:30:14;;;;;;;2.60;1.93;;;6.30;91.60;;;4.80;88.07;98506.78;5075988;28;20520;-77
2022/01/30 01:32:41;;;;;;;4.67;2.03;;;6.20;91.30;;;4.90;89.16;98508.44;5075996;28;20443;-78
2022/01/30 01:35:09;;;;;;;2.07;1.87;;;6.30;91.80;;;4.88;88.17;98502.41;5092514;28;20489;-78
2022/01/30 01:37:36;;;;;;;4.20;1.80;;;6.30;90.90;;;4.76;88.70;98486.66;5090897;28;20528;-76
2022/01/30 01:40:04;;;;;;;3.97;1.60;;;6.30;91.30;;;4.89;88.13;98499.56;5091316;28;20458;-77
2022/01/30 01:42:34;;;;;;;1.70;1.60;;;6.30;91.00;;;4.85;87.81;98484.00;5075622;28;20436;-77
2022/01/30 01:45:03;;;;;;;2.30;1.67;;;6.20;90.80;;;4.75;87.93;98486.84;5093030;28;20489;-78
2022/01/30 01:47:33;;;;;;;2.47;1.50;;;6.20;90.70;;;4.83;87.14;98484.16;5079468;28;20455;-78
2022/01/30 01:50:00;;;;;;;2.50;1.50;;;6.20;90.70;;;4.70;88.11;98473.97;5074599;28;20450;-77
2022/01/30 01:52:27;;;;;;;5.70;2.40;;;6.20;90.90;;;4.65;87.90;98468.28;5073521;28;20835;-78
2022/01/30 01:54:58;;;;;;;1.50;1.40;;;6.10;91.10;;;4.66;87.70;98478.81;5091578;28;20458;-79
2022/01/30 01:57:27;;;;;;;3.63;2.03;;;6.10;90.80;;;4.70;87.08;98457.91;5075573;28;20470;-81
2022/01/30 01:59:56;;;;;;;7.70;2.70;;;6.10;90.60;;;4.76;87.23;98469.78;5075294;28;20492;-80
2022/01/30 02:02:25;;;;;;;5.10;2.20;;;6.10;90.30;;;4.77;86.68;98468.78;5074380;28;21031;-78
2022/01/30 02:04:54;;;;;;;3.07;2.23;;;6.20;90.10;;;4.86;86.54;98461.59;5075335;28;20883;-74
2022/01/30 02:07:55;;;;;;;4.63;2.00;;;6.20;89.30;;;4.90;86.14;98465.59;5090684;28;20445;-74
2022/01/30 02:10:29;;;;;;;3.30;1.90;;;6.30;89.00;;;4.88;86.09;98464.94;5074672;28;20442;-73
2022/01/30 02:13:09;;;;;;;5.23;2.43;;;6.30;88.60;;;4.78;85.47;98465.09;5074658;28;20500;-74
2022/01/30 02:23:56;;;;;;;4.70;3.00;;;6.30;88.40;;;4.85;86.30;98465.25;5089860;28;20769;-74
2022/01/30 02:24:10;;;;;;;5.37;2.37;;;6.30;86.80;;;4.95;84.41;98455.22;5073880;28;20434;-75
2022/01/30 02:26:41;;;;;;;4.70;2.57;;;6.30;87.00;;;4.96;84.75;98456.91;5073113;28;20439;-73
2022/01/30 02:29:08;;;;;;;4.27;2.30;;;6.30;87.00;;;4.96;84.67;98454.22;5074268;28;20553;-73
2022/01/30 02:31:38;;;;;;;4.07;2.27;;;6.30;87.30;;;4.65;85.31;98401.38;5073504;28;20445;-73
2022/01/30 02:34:05;;;;;;;4.00;2.80;;;6.40;87.50;;;4.90;84.91;98449.53;5074167;28;20432;-74
2022/01/30 02:36:32;;;;;;;6.97;2.90;;;6.40;87.10;;;4.97;84.71;98463.94;5074203;28;20496;-76
2022/01/30 02:39:00;;;;;;;5.00;2.93;;;6.40;87.50;;;4.86;85.24;98445.50;5090163;28;20434;-74
2022/01/30 02:41:28;;;;;;;6.03;3.27;;;6.30;87.60;;;5.01;84.75;98467.94;5073985;28;20555;-74
2022/01/30 02:44:07;;;;;;;6.23;3.10;;;6.40;87.30;;;4.89;85.45;98456.72;5089515;28;20549;-74
2022/01/30 02:46:39;;;;;;;8.50;2.67;;;6.30;87.80;;;5.03;84.98;98473.13;5072799;28;20550;-74
2022/01/30 02:49:25;;;;;;;4.40;2.63;;;6.40;87.10;;;4.92;84.72;98482.31;5074103;28;20553;-74
2022/01/30 02:51:57;;;;;;;6.70;2.70;;;6.30;87.10;;;4.90;85.90;98462.91;5073692;28;20959;-75
2022/01/30 02:54:25;;;;;;;5.93;2.60;;;6.30;87.90;;;4.82;85.18;98461.94;5073971;28;20437;-74
2022/01/30 02:56:54;;;;;;;6.23;2.40;;;6.30;87.60;;;4.85;85.44;98465.25;5074539;28;20536;-75
2022/01/30 02:59:22;;;;;;;6.07;3.00;;;6.30;87.80;;;4.81;86.10;98470.09;5073613;28;20505;-75
2022/01/30 03:01:49;;;;;;;8.63;2.80;;;6.20;89.00;;;4.77;87.14;98477.63;5073792;28;20549;-76
2022/01/30 03:04:16;;;;;;;5.20;2.87;;;6.20;90.30;;;4.63;87.50;98451.56;5074328;28;20429;-75
2022/01/30 03:06:44;;;;;;;10.13;3.40;;;6.10;90.40;;;4.60;88.53;98457.22;5073683;28;20504;-74
2022/01/30 03:09:12;;;;;;;9.40;3.83;;;6.00;91.20;;;4.51;88.94;98467.06;5088927;28;21018;-76
2022/01/30 03:11:39;;;;;;;5.77;3.80;;;6.00;92.10;;;4.37;90.09;98487.31;5073838;28;20521;-74
2022/01/30 03:14:08;;;;;;;6.10;3.63;;;5.90;92.70;;;4.49;90.59;98483.31;5089290;28;20495;-75
2022/01/30 03:16:35;;;;;;;9.33;4.00;;;5.90;92.90;;;4.51;88.74;98502.72;5074429;28;20446;-72
2022/01/30 03:19:02;;;;;;;4.40;3.20;;;5.90;91.60;;;4.58;86.93;98491.34;5071952;28;20854;-73
2022/01/30 03:21:29;;;;;;;7.00;3.50;;;6.00;89.20;;;4.54;85.91;98483.66;5073357;28;20884;-73
2022/01/30 03:23:56;;;;;;;4.77;2.80;;;6.10;88.80;;;4.65;85.79;98482.47;5088752;28;20438;-74
2022/01/30 03:26:23;;;;;;;3.50;2.53;;;6.10;88.60;;;4.68;85.73;98489.34;5089450;28;20440;-74
2022/01/30 03:28:52;;;;;;;6.57;2.90;;;6.10;88.40;;;4.64;85.91;98485.34;5073200;28;20437;-74
2022/01/30 03:31:21;;;;;;;7.40;2.90;;;6.10;87.80;;;4.70;84.70;98494.53;5073470;28;20448;-74
2022/01/30 03:33:48;;;;;;;10.50;3.33;;;6.10;86.40;;;4.67;84.08;98511.78;5088804;28;20442;-75
2022/01/30 03:36:15;;;;;;;7.37;3.30;;;6.10;86.10;;;4.70;84.15;98503.41;5073014;28;20530;-75
2022/01/30 03:38:42;;;;;;;8.13;4.00;;;6.10;86.30;;;4.68;83.89;98508.09;5073265;28;20926;-76
2022/01/30 03:41:09;;;;;;;4.57;2.60;;;6.10;85.40;;;4.68;84.20;98516.13;5089529;28;20526;-76
2022/01/30 03:43:36;;;;;;;9.37;2.93;;;6.10;85.20;;;4.67;83.69;98499.22;5089203;28;20430;-76
2022/01/30 03:46:04;;;;;;;8.17;2.90;;;6.10;84.70;;;4.72;82.54;98509.44;5071979;28;20483;-77
2022/01/30 03:48:32;;;;;;;5.97;2.60;;;6.20;84.60;;;4.71;83.20;98499.72;5073719;28;20464;-76
2022/01/30 03:50:59;;;;;;;11.23;3.03;;;6.20;84.30;;;4.73;83.37;98503.06;5073326;28;20436;-75
2022/01/30 03:53:26;;;;;;;9.37;3.97;;;6.20;84.50;;;4.71;82.94;98507.75;5089670;28;20450;-76
2022/01/30 03:55:53;;;;;;;12.60;3.33;;;6.10;84.60;;;4.82;82.93;98498.56;5090152;28;20496;-75
2022/01/30 03:58:20;;;;;;;4.67;2.93;;;6.20;84.50;;;4.76;82.69;98494.69;5074434;28;20444;-74
2022/01/30 04:00:47;;;;;;;6.33;2.50;;;6.20;84.00;;;4.77;82.66;98491.00;5077005;28;20537;-76
2022/01/30 04:03:15;;;;;;;9.43;2.80;;;6.20;83.70;;;4.84;82.44;98499.22;5093260;28;20477;-75
2022/01/30 04:05:43;;;;;;;5.17;3.00;;;6.20;84.00;;;4.80;82.74;98501.41;5075891;28;20458;-75
2022/01/30 04:08:11;;;;;;;6.47;2.83;;;6.20;84.50;;;4.71;83.39;98496.22;5094925;28;20428;-75
2022/01/30 04:10:39;;;;;;;4.10;2.50;;;6.20;84.50;;;4.78;83.34;98487.38;5084155;28;20462;-75
2022/01/30 04:13:06;;;;;;;5.00;2.53;;;6.20;84.30;;;4.79;82.60;98509.59;5080826;28;20511;-77
2022/01/30 04:15:34;;;;;;;7.67;2.90;;;6.20;84.10;;;4.75;83.14;98502.91;5094582;28;20771;-77
2022/01/30 04:18:02;;;;;;;8.23;3.00;;;6.20;84.20;;;4.74;83.38;98511.94;5077862;28;20900;-77
2022/01/30 04:20:30;;;;;;;9.60;4.50;;;6.20;84.60;;;4.77;82.71;98506.25;5076904;28;20432;-78
2022/01/30 04:22:58;;;;;;;14.20;3.40;;;6.20;84.40;;;4.76;83.33;98513.44;5077655;28;20472;-77
2022/01/30 04:25:25;;;;;;;10.43;3.10;;;6.20;84.40;;;4.66;82.62;98510.09;5076817;28;20438;-76
2022/01/30 04:27:53;;;;;;;7.50;3.60;;;6.10;84.10;;;4.71;82.22;98506.94;5092278;28;20802;-76
2022/01/30 04:30:21;;;;;;;13.23;3.37;;;6.10;83.90;;;4.74;81.79;98509.28;5076660;28;20485;-77
2022/01/30 04:32:49;;;;;;;9.13;3.23;;;6.10;82.90;;;4.67;82.09;98509.09;5076388;28;20434;-77
2022/01/30 04:35:23;;;;;;;6.50;3.23;;;6.10;83.00;;;4.72;80.72;98525.50;5076413;28;20435;-76
2022/01/30 04:38:01;;;;;;;6.93;2.73;;;6.10;82.60;;;4.67;80.32;98519.81;5076113;28;20496;-76
2022/01/30 04:40:49;;;;;;;6.67;3.33;;;6.10;81.80;;;4.67;80.14;98522.47;5075946;28;20492;-77
2022/01/30 04:52:20;;;;;;;8.30;3.10;;;6.00;80.30;;;4.23;78.36;98489.59;5052617;28;20457;-76
2022/01/30 04:55:30;;;;;;;5.47;2.83;;;5.90;79.70;;;4.48;75.95;98535.16;5036545;28;20430;-76
2022/01/30 04:57:56;;;;;;;10.07;3.23;;;5.90;78.50;;;4.46;74.58;98542.50;5089355;28;20484;-76
2022/01/30 05:00:49;;;;;;;6.40;2.37;;;5.90;77.00;;;4.46;74.22;98534.47;5076955;28;20491;-76
2022/01/30 05:03:31;;;;;;;8.23;2.83;;;5.90;76.60;;;4.41;73.97;98531.44;5076714;28;20433;-77
2022/01/30 05:06:03;;;;;;;8.20;2.73;;;5.80;76.10;;;4.41;74.02;98539.47;5076340;28;20431;-76
2022/01/30 05:08:32;;;;;;;9.07;2.67;;;5.80;75.70;;;4.40;72.54;98543.16;5076171;28;20423;-78
2022/01/30 05:11:01;;;;;;;14.57;3.30;;;5.80;75.00;;;4.39;72.75;98547.66;5091549;28;20468;-75
2022/01/30 05:13:32;;;;;;;8.73;2.87;;;5.80;74.60;;;4.33;72.15;98542.16;5091609;28;20483;-75
2022/01/30 05:16:00;;;;;;;10.03;2.70;;;5.80;74.60;;;4.35;72.29;98548.16;5076235;28;20446;-75
2022/01/30 05:18:30;;;;;;;9.20;3.77;;;5.80;74.50;;;4.34;72.43;98559.88;5075736;28;20467;-75
2022/01/30 05:20:58;;;;;;;6.20;2.50;;;5.80;74.70;;;4.27;72.69;98564.19;5075810;28;20438;-75
2022/01/30 05:23:26;;;;;;;5.67;2.53;;;5.70;74.60;;;4.32;72.74;98572.53;5091535;28;20551;-75
2022/01/30 05:25:54;;;;;;;8.70;3.00;;;5.70;74.60;;;4.33;72.26;98569.72;5075545;28;20988;-76
2022/01/30 05:28:23;;;;;;;8.20;2.93;;;5.70;74.50;;;4.36;72.86;98579.28;5075877;28;20443;-76
2022/01/30 05:30:52;;;;;;;7.97;2.20;;;5.80;74.20;;;4.46;71.79;98569.25;5091524;28;20833;-76
2022/01/30 05:33:20;;;;;;;5.20;2.60;;;5.80;73.50;;;4.29;72.09;98564.84;5075545;28;20492;-76
2022/01/30 05:35:47;;;;;;;7.03;2.60;;;5.80;73.80;;;4.21;71.41;98534.41;5091290;28;20547;-76
2022/01/30 05:38:15;;;;;;;10.97;3.27;;;5.80;73.50;;;4.30;70.64;98563.84;5075736;28;20462;-74
2022/01/30 05:40:43;;;;;;;7.07;2.50;;;5.80;72.40;;;4.48;69.70;98586.00;5091452;28;20478;-76
2022/01/30 05:43:11;;;;;;;5.30;2.73;;;5.80;72.10;;;4.43;69.74;98596.34;5075444;28;20512;-76
2022/01/30 05:45:41;;;;;;;8.53;2.43;;;5.80;72.10;;;4.37;69.22;98583.63;5090660;28;20473;-75
2022/01/30 05:48:15;;;;;;;7.60;2.63;;;5.80;71.40;;;4.46;70.58;98597.88;5073824;28;20920;-79
2022/01/30 05:50:43;;;;;;;6.47;2.47;;;5.80;72.30;;;4.74;69.82;98603.78;5076902;28;20461;-85
2022/01/30 05:53:10;;;;;;;5.93;2.33;;;6.10;72.00;;;4.76;68.91;98601.78;5092750;28;20525;-84
2022/01/30 05:55:37;;;;;;;8.43;2.97;;;6.20;71.00;;;4.69;69.13;98606.13;5074645;28;20940;-79
2022/01/30 05:58:04;;;;;;;7.90;3.17;;;6.20;71.20;;;4.74;69.00;98619.84;5092848;28;20439;-81
2022/01/30 06:00:31;;;;;;;5.30;2.67;;;6.10;70.90;;;4.59;68.47;98610.78;5091630;28;20779;-81
2022/01/30 06:02:58;;;;;;;7.10;2.80;;;6.10;70.50;;;4.58;68.57;98635.88;5097661;28;20463;-79
2022/01/30 06:05:27;;;;;;;4.70;2.33;;;6.00;70.10;;;4.29;68.17;98621.03;5083200;28;20445;-77
2022/01/30 06:07:56;;;;;;;10.17;2.60;;;5.80;69.20;;;4.09;68.94;98621.28;5074839;28;20502;-77
2022/01/30 06:10:26;;;;;;;13.30;3.23;;;5.60;69.80;;;4.00;68.70;98623.06;5075988;28;20565;-75
2022/01/30 06:12:53;;;;;;;6.47;2.70;;;5.50;69.20;;;3.73;68.34;98610.72;5090749;28;20909;-76
2022/01/30 06:15:20;;;;;;;10.83;3.20;;;5.40;69.40;;;3.74;69.23;98636.44;5087987;28;20448;-76
2022/01/30 06:17:47;;;;;;;8.13;3.13;;;5.30;69.20;;;3.71;67.64;98645.59;5095316;28;20462;-77
2022/01/30 06:20:14;;;;;;;7.13;2.70;;;5.20;68.30;;;3.57;67.84;98636.31;5096919;28;20473;-76
2022/01/30 06:22:43;;;;;;;10.80;2.63;;;5.10;68.00;;;3.71;65.60;98642.94;5094206;28;20531;-76
2022/01/30 06:25:11;;;;;;;13.13;3.20;;;5.20;66.60;;;3.74;66.38;98628.41;5111948;28;20844;-79
2022/01/30 06:27:38;;;;;;;7.23;2.33;;;5.20;66.60;;;3.72;66.20;98635.75;5111681;28;20494;-77
2022/01/30 06:30:08;;;;;;;5.17;2.67;;;5.20;66.50;;;3.72;66.62;98633.09;5097106;28;20491;-77
2022/01/30 06:32:35;;;;;;;7.83;2.50;;;5.10;66.80;;;3.72;66.13;98628.56;5094011;28;20985;-78
2022/01/30 06:35:03;;;;;;;8.27;2.30;;;5.20;66.50;;;3.66;66.52;98632.69;5096103;28;20439;-80
2022/01/30 06:37:32;;;;;;;10.23;2.13;;;5.20;66.70;;;3.62;65.67;98636.69;5095232;28;20532;-80
2022/01/30 06:40:00;;;;;;;7.90;2.30;;;5.10;66.00;;;3.56;66.29;98631.94;5095050;28;20429;-81
2022/01/30 06:42:29;;;;;;;11.73;3.10;;;5.00;66.10;;;3.51;66.52;98658.31;5112014;28;20506;-82
2022/01/30 06:44:56;;;;;;;5.90;2.03;;;5.00;66.40;;;3.51;67.14;98629.75;5111171;28;20765;-84
2022/01/30 06:47:23;;;;;;;11.40;2.83;;;5.00;66.20;;;3.39;67.15;98639.00;5095208;28;20846;-84
2022/01/30 06:49:49;;;;;;;9.60;3.00;;;4.90;66.60;;;3.35;67.56;98627.78;5095535;28;20485;-82
2022/01/30 06:52:17;;;;;;;13.10;2.90;;;4.80;66.70;;;3.35;68.13;98619.78;5095393;28;20480;-84
2022/01/30 06:54:44;;;;;;;8.37;2.97;;;4.80;67.10;;;3.30;68.85;98616.72;5097076;28;20480;-84
2022/01/30 06:57:12;;;;;;;8.13;2.70;;;4.70;67.40;;;3.24;69.53;98622.66;5096471;28;20442;-83
2022/01/30 06:59:39;;;;;;;9.23;2.90;;;4.70;67.90;;;3.14;69.35;98620.09;5112238;28;20857;-84
2022/01/30 07:02:09;;;;;;;7.00;2.53;;;4.70;68.10;;;3.21;68.67;98622.97;5111765;28;20504;-84
2022/01/30 07:04:35;;;;;;;12.00;2.83;;;4.70;67.90;;;3.18;69.05;98640.13;5094340;28;21012;-83
2022/01/30 07:07:03;;;;;;;10.57;3.13;;;4.60;68.10;;;3.14;68.98;98620.09;5095701;28;20446;-84
2022/01/30 07:09:31;;;;;;;10.13;3.00;;;4.70;67.80;;;3.20;67.87;98646.19;5115386;28;20438;-84
2022/01/30 07:11:58;;;;;;;7.53;2.70;;;4.70;66.70;;;3.21;66.55;98631.00;5095220;28;20459;-83
2022/01/30 07:14:27;;;;;;;6.17;2.50;;;4.70;65.90;;;3.20;66.85;98626.66;5094710;28;20488;-83
2022/01/30 07:16:54;;;;;;;7.97;1.70;;;4.70;65.80;;;3.14;66.71;98621.94;5111059;28;20539;-84
2022/01/30 07:19:21;;;;;;;6.30;2.60;;;4.60;65.80;;;3.07;67.50;98633.19;5094900;28;20473;-82
2022/01/30 07:21:48;;;;;;;4.43;2.03;;;4.60;66.20;;;2.60;67.80;98561.34;5076355;28;20467;-81
2022/01/30 07:24:16;;;;;;;12.27;3.30;;;4.50;66.20;;;2.89;67.68;98622.53;5094653;28;20428;-82
2022/01/30 07:26:43;;;;;;;9.37;2.33;;;4.50;66.30;;;3.01;67.53;98647.16;5110922;28;20444;-83
2022/01/30 07:29:10;;;;;;;8.93;3.13;;;4.50;66.00;;;2.96;67.06;98633.44;5096197;28;20438;-82
2022/01/30 07:31:39;;;;;;;13.70;3.90;;;4.50;65.70;;;3.06;66.40;98636.03;5098523;28;20470;-81
2022/01/30 07:34:06;;;;;;;5.23;1.80;;;4.50;65.40;;;3.05;65.85;98635.19;5097192;28;20457;-81
2022/01/30 07:36:36;;;;;;;10.87;2.77;;;4.50;65.00;;;3.01;65.80;98627.63;5098594;28;20959;-82
2022/01/30 07:39:06;;;;;;;8.23;2.70;;;4.50;64.70;;;2.51;66.28;98563.94;5098612;28;20456;-82
2022/01/30 07:41:33;;;;;;;12.20;3.78;;;4.50;64.70;;;3.03;66.09;98645.19;5098094;28;20814;-81
2022/01/30 07:44:01;;;;;;;9.53;2.50;;;4.50;64.60;;;3.02;65.11;98645.31;5098508;28;20580;-82
2022/01/30 07:46:29;;;;;;;8.37;2.23;;;4.50;64.00;;;3.01;65.05;98641.84;5099863;28;20490;-82
2022/01/30 07:48:58;;;;;;;6.73;2.60;;;4.50;63.90;;;3.00;65.91;98660.66;5099972;28;20472;-83
2022/01/30 07:51:25;;;;;;;4.80;2.50;;;4.50;64.20;;;3.00;65.26;98674.88;5098649;28;20490;-85
2022/01/30 07:53:52;;;;;;;8.60;2.57;;;4.50;64.10;;;3.09;65.58;98684.63;5099518;28;20439;-82
2022/01/30 07:56:19;;;;;;;11.70;3.00;;;4.50;64.00;;;3.14;65.96;98686.03;5114532;28;20529;-82
2022/01/30 07:58:46;;;;;;;12.93;2.97;;;4.60;64.10;;;3.15;65.88;98693.03;5082099;28;20440;-83
2022/01/30 08:01:13;;;;;;;10.13;4.20;;;4.60;64.20;;;3.26;65.68;98674.09;5115536;28;20781;-84
2022/01/30 08:03:40;;;;;;;5.90;2.67;;;4.70;64.30;;;3.31;65.13;98687.84;5117512;28;20555;-72
2022/01/30 08:06:08;;;;;;;10.10;3.47;;;4.80;64.30;;;3.23;64.93;98675.25;5099715;28;21002;-83
2022/01/30 08:08:35;;;;;;;8.07;2.80;;;4.80;64.00;;;3.37;65.60;98694.44;5099809;28;20835;-83
2022/01/30 08:11:03;;;;;;;6.10;2.50;;;4.80;64.30;;;3.42;64.79;98696.66;5097819;28;20468;-82
2022/01/30 08:13:30;;;;;;;10.90;3.10;;;4.80;64.00;;;3.40;65.17;98716.31;5099378;28;20491;-78
2022/01/30 08:15:58;;;;;;;13.60;3.43;;;4.90;63.70;;;2.98;64.27;98647.47;5097434;28;20526;-76
2022/01/30 08:18:25;;;;;;;8.10;2.67;;;4.80;63.80;;;3.35;65.28;98705.25;5097322;28;20521;-72
2022/01/30 08:20:54;;;;;;;3.97;2.30;;;4.80;63.80;;;3.38;65.50;98693.44;5117344;28;20462;-82
2022/01/30 08:23:29;;;;;;;5.60;2.60;;;4.90;64.80;;;3.68;65.62;98724.25;5102379;28;20570;-82
2022/01/30 08:25:56;;;;;;;8.37;2.77;;;5.10;64.80;;;3.86;64.05;98718.03;5091765;28;20933;-82
2022/01/30 08:28:23;;;;;;;9.73;2.87;;;5.20;63.70;;;3.78;63.71;98697.44;5090655;28;20935;-81
2022/01/30 08:30:51;;;;;;;11.23;3.80;;;5.40;63.60;;;4.04;63.95;98722.53;5082635;28;21014;-81
2022/01/30 08:33:19;;;;;;;4.80;2.80;;;5.40;63.10;;;4.08;63.43;98716.69;5096356;28;20458;-77
2022/01/30 08:35:49;;;;;;;10.50;2.90;;;5.50;63.30;;;4.07;63.29;98715.03;5090804;28;20772;-80
2022/01/30 08:38:21;;;;;;;7.30;2.77;;;5.50;62.80;;;3.15;62.95;98554.19;5122298;28;20453;-73
2022/01/30 08:40:49;;;;;;;2.40;1.23;;;5.50;62.30;;;4.11;62.68;98707.53;5106666;28;20466;-80
2022/01/30 08:43:17;;;;;;;4.20;2.13;;;5.50;62.00;;;4.10;62.52;98708.53;5097994;28;20559;-76
2022/01/30 08:45:44;;;;;;;8.60;2.07;;;5.60;61.80;;;4.23;62.23;98708.09;5095963;28;20559;-75
2022/01/30 08:48:11;;;;;;;11.37;2.77;;;5.70;61.90;;;4.06;62.32;98686.59;5101687;28;20563;-73
2022/01/30 08:50:38;;;;;;;7.33;3.43;;;5.70;61.90;;;4.56;60.97;98724.38;5099797;28;20460;-83
2022/01/30 08:53:05;;;;;;;7.00;2.50;;;6.00;61.50;;;4.72;60.40;98734.31;5105278;28;20515;-82
2022/01/30 08:55:33;;;;;;;12.17;2.47;;;6.20;61.00;;;4.57;60.04;98735.91;5077808;28;20478;-77
2022/01/30 08:58:07;;;;;;;7.50;2.00;;;6.10;60.20;;;4.48;61.22;98751.06;5076791;28;20439;-75
2022/01/30 09:00:36;;;;;;;8.53;2.70;;;5.90;60.40;;;4.43;61.20;98740.84;5077056;28;20444;-78
2022/01/30 09:03:03;;;;;;;5.40;2.00;;;5.90;61.00;;;4.33;62.04;98745.47;5076995;28;20481;-80
2022/01/30 09:05:31;;;;;;;7.53;2.60;;;5.80;60.90;;;4.25;61.88;98747.09;5097413;28;20786;-79
2022/01/30 09:07:58;;;;;;;7.20;2.30;;;5.80;61.30;;;4.41;61.53;98756.22;5073845;28;20441;-72
2022/01/30 09:10:25;;;;;;;7.20;2.40;;;5.80;61.00;;;4.34;62.03;98757.84;5113213;28;20817;-78
2022/01/30 09:12:52;;;;;;;9.47;2.27;;;5.80;61.00;;;4.39;61.58;98759.03;5096873;28;20525;-80
2022/01/30 09:15:21;;;;;;;7.53;2.40;;;5.80;61.00;;;4.52;61.53;98761.31;5097001;28;20528;-75
2022/01/30 09:17:48;;;;;;;5.40;1.87;;;5.90;61.40;;;4.54;61.89;98748.59;5094790;28;20525;-76
2022/01/30 09:20:15;;;;;;;5.20;2.40;;;6.00;60.70;;;4.45;61.99;98765.59;5088341;28;20457;-76
2022/01/30 09:22:43;;;;;;;8.57;2.43;;;5.90;60.80;;;4.45;61.09;98754.91;5095273;28;20563;-76
2022/01/30 09:25:11;;;;;;;6.97;1.83;;;5.90;60.70;;;4.45;61.81;98762.91;5088437;28;20543;-73
2022/01/30 09:27:39;;;;;;;5.90;1.87;;;5.90;61.00;;;4.43;62.08;98761.41;5092842;28;20496;-75
2022/01/30 09:30:08;;;;;;;10.50;2.50;;;5.90;61.10;;;4.41;62.06;98753.53;5084583;28;20600;-71
2022/01/30 09:32:36;;;;;;;7.73;2.63;;;5.90;61.40;;;4.30;62.98;98756.47;5078863;28;20480;-71
2022/01/30 09:35:05;;;;;;;7.53;2.43;;;5.70;61.60;;;4.38;63.60;98764.56;5095152;28;20487;-72
2022/01/30 09:37:33;;;;;;;7.77;2.20;;;5.80;62.00;;;4.23;63.74;98773.16;5086578;28;21498;-73
2022/01/30 09:40:00;;;;;;;6.47;2.60;;;5.70;61.80;;;4.34;63.91;98763.22;5082367;28;20711;-73
2022/01/30 09:42:27;;;;;;;6.63;2.20;;;5.70;62.30;;;4.35;62.97;98760.34;5079188;28;21142;-74
2022/01/30 09:44:58;;;;;;;9.87;2.77;;;5.80;62.10;;;4.47;63.83;98758.25;5082444;28;21074;-75
2022/01/30 09:47:25;;;;;;;7.47;2.10;;;5.90;62.20;;;4.32;63.65;98762.50;5084362;28;20455;-74
2022/01/30 09:49:54;;;;;;;9.47;2.23;;;5.80;61.80;;;4.25;63.05;98770.34;5087265;28;21364;-75
2022/01/30 09:52:21;;;;;;;7.93;2.13;;;5.70;61.60;;;4.09;63.50;98771.03;5085262;28;20551;-72
2022/01/30 09:54:49;;;;;;;8.27;2.00;;;5.60;61.90;;;4.18;64.12;98790.66;5083932;28;20479;-73
2022/01/30 09:57:17;;;;;;;2.60;1.73;;;5.60;62.20;;;4.15;62.98;98786.47;5101364;27;20458;-74
2022/01/30 09:59:45;;;;;;;6.33;2.80;;;5.60;61.70;;;4.16;62.42;98785.47;5082392;28;20500;-76
2022/01/30 10:02:12;;;;;;;7.47;2.87;;;5.60;61.20;;;4.20;63.09;98768.13;5075140;28;20934;-77
2022/01/30 10:04:40;;;;;;;10.10;2.10;;;5.60;61.40;;;4.23;61.96;98785.69;5085098;28;20972;-75
2022/01/30 10:07:13;;;;;;;11.73;2.20;;;5.60;60.70;;;4.25;62.15;98792.56;5085826;28;20467;-75
2022/01/30 10:09:44;;;;;;;7.03;2.57;;;5.70;60.60;;;4.39;61.08;98787.66;5086418;28;20467;-75
2022/01/30 10:12:16;;;;;;;6.90;2.50;;;5.80;60.50;;;4.46;61.17;98783.34;5079062;28;20868;-73
2022/01/30 10:14:52;;;;;;;4.10;1.63;;;5.80;60.10;;;4.46;60.65;98798.56;5105929;28;20439;-72
2022/01/30 10:17:32;;;;;;;5.97;2.00;;;5.90;59.70;;;4.50;61.28;98795.44;5102676;28;20591;-74
2022/01/30 10:20:07;;;;;;;6.83;1.97;;;5.90;59.70;;;4.48;60.43;98816.16;5095040;28;20477;-75
2022/01/30 10:22:47;;;;;;;7.20;2.57;;;5.90;59.70;;;4.63;61.87;98820.94;5089570;28;21600;-76
2022/01/30 10:25:21;;;;;;;13.30;2.40;;;6.00;60.50;;;4.61;60.60;98820.22;5080781;28;20452;-72
2022/01/30 10:27:48;;;;;;;4.40;1.90;;;6.00;59.80;;;4.56;60.61;98830.56;5076812;28;20459;-75
2022/01/30 10:30:22;;;;;;;12.00;2.80;;;6.00;59.70;;;4.49;62.14;98814.31;5083889;28;20895;-75
2022/01/30 10:32:57;;;;;;;6.80;2.00;;;5.90;60.20;;;4.24;61.70;98764.13;5080346;28;20449;-76
2022/01/30 10:35:26;;;;;;;7.60;2.67;;;6.00;60.50;;;4.61;62.36;98828.25;5082270;28;20438;-74
2022/01/30 10:37:55;;;;;;;5.53;1.90;;;6.00;60.70;;;4.71;61.83;98828.19;5098923;28;20445;-75
2022/01/30 10:40:35;;;;;;;10.37;2.23;;;6.10;60.90;;;4.57;62.51;98832.25;5079852;28;20444;-79
2022/01/30 10:43:02;;;;;;;9.20;2.47;;;6.00;60.60;;;4.37;63.02;98840.47;5098042;28;20531;-78
2022/01/30 10:45:31;;;;;;;10.50;3.00;;;5.80;60.90;;;4.39;63.10;98825.09;5080308;28;20444;-73
2022/01/30 10:48:16;;;;;;;12.80;2.13;;;5.80;61.40;;;4.34;63.67;98828.25;5079681;28;20562;-76
2022/01/30 10:50:47;;;;;;;10.10;2.00;;;5.80;61.30;;;4.46;63.18;98826.16;5081916;28;20460;-76
2022/01/30 10:53:24;;;;;;;5.27;2.30;;;5.90;61.40;;;4.29;62.53;98825.22;5076414;28;20435;-78
2022/01/30 10:55:53;;;;;;;8.80;2.47;;;5.80;61.10;;;4.20;63.70;98829.66;5081178;28;20465;-76
2022/01/30 10:58:22;;;;;;;5.30;1.70;;;5.70;61.40;;;4.24;63.51;98839.03;5075616;28;20474;-76
2022/01/30 11:00:53;;;;;;;4.90;1.83;;;5.70;61.10;;;4.19;63.43;98841.34;5082973;28;20521;-75
2022/01/30 11:03:44;;;;;;;3.63;1.60;;;5.70;61.10;;;4.23;63.68;98849.88;5086083;28;20946;-73
2022/01/30 11:06:14;;;;;;;9.67;2.07;;;5.60;61.70;;;4.31;64.06;98854.47;5082519;28;20481;-75
2022/01/30 11:08:47;;;;;;;5.90;1.83;;;5.70;61.90;;;4.27;63.87;98847.75;5093440;28;20997;-79
2022/01/30 11:11:27;;;;;;;10.93;2.40;;;5.70;62.50;;;4.28;64.28;98860.13;5083005;28;20460;-73